sensor_id;sensor_type;location;lat;lon;timestamp;P1;durP1;ratioP1;P2;durP2;ratioP2
77152;SDS011;66124;51.146;17.072;2023-06-24T00:09:09;18.90;;;13.60;;
77152;SDS011;66124;51.146;17.072;2023-06-24T00:11:38;18.90;;;14.70;;
77152;SDS011;66124;51.146;17.072;2023-06-24T00:14:07;20.00;;;14.60;;
77152;SDS011;66124;51.146;17.072;2023-06-24T00:16:37;20.00;;;14.00;;
77152;SDS011;66124;51.146;17.072;2023-06-24T00:19:07;19.90;;;14.50;;
77152;SDS011;66124;51.146;17.072;2023-06-24T00:21:37;18.70;;;12.80;;
77152;SDS011;66124;51.146;17.072;2023-06-24T00:24:07;16.30;;;12.10;;
77152;SDS011;66124;51.146;17.072;2023-06-24T00:26:36;18.30;;;13.20;;
77152;SDS011;66124;51.146;17.072;2023-06-24T00:29:06;18.70;;;13.40;;
77152;SDS011;66124;51.146;17.072;2023-06-24T00:31:35;16.90;;;12.60;;
77152;SDS011;66124;51.146;17.072;2023-06-24T00:34:05;15.70;;;12.50;;
77152;SDS011;66124;51.146;17.072;2023-06-24T00:36:35;17.70;;;13.30;;
77152;SDS011;66124;51.146;17.072;2023-06-24T00:39:04;16.70;;;12.70;;
77152;SDS011;66124;51.146;17.072;2023-06-24T00:41:34;16.10;;;13.10;;
77152;SDS011;66124;51.146;17.072;2023-06-24T00:44:04;17.10;;;12.10;;
77152;SDS011;66124;51.146;17.072;2023-06-24T00:46:34;17.20;;;12.70;;
77152;SDS011;66124;51.146;17.072;2023-06-24T00:49:04;16.80;;;13.40;;
77152;SDS011;66124;51.146;17.072;2023-06-24T00:51:33;15.70;;;12.30;;
77152;SDS011;66124;51.146;17.072;2023-06-24T00:54:03;17.00;;;11.80;;
77152;SDS011;66124;51.146;17.072;2023-06-24T00:56:33;14.50;;;10.20;;
77152;SDS011;66124;51.146;17.072;2023-06-24T00:59:03;14.40;;;10.80;;
77152;SDS011;66124;51.146;17.072;2023-06-24T01:01:34;14.20;;;11.10;;
77152;SDS011;66124;51.146;17.072;2023-06-24T01:04:04;14.10;;;10.50;;
77152;SDS011;66124;51.146;17.072;2023-06-24T01:06:34;14.80;;;10.10;;
77152;SDS011;66124;51.146;17.072;2023-06-24T01:09:05;13.60;;;10.00;;
77152;SDS011;66124;51.146;17.072;2023-06-24T01:11:34;11.70;;;8.80;;
77152;SDS011;66124;51.146;17.072;2023-06-24T01:14:03;11.60;;;9.00;;
77152;SDS011;66124;51.146;17.072;2023-06-24T01:16:35;5.60;;;4.60;;
77152;SDS011;66124;51.146;17.072;2023-06-24T01:19:13;8.90;;;7.50;;
77152;SDS011;66124;51.146;17.072;2023-06-24T01:34:42;6.90;;;5.30;;
77152;SDS011;66124;51.146;17.072;2023-06-24T01:37:18;6.50;;;5.70;;
77152;SDS011;66124;51.146;17.072;2023-06-24T01:39:50;9.30;;;5.70;;
77152;SDS011;66124;51.146;17.072;2023-06-24T01:42:24;5.80;;;5.20;;
77152;SDS011;66124;51.146;17.072;2023-06-24T01:44:53;6.90;;;5.10;;
77152;SDS011;66124;51.146;17.072;2023-06-24T01:47:25;7.40;;;4.60;;
77152;SDS011;66124;51.146;17.072;2023-06-24T01:49:54;6.00;;;4.90;;
77152;SDS011;66124;51.146;17.072;2023-06-24T01:52:28;7.60;;;5.00;;
77152;SDS011;66124;51.146;17.072;2023-06-24T01:58:24;6.20;;;4.60;;
77152;SDS011;66124;51.146;17.072;2023-06-24T02:00:53;7.70;;;5.10;;
77152;SDS011;66124;51.146;17.072;2023-06-24T02:03:24;6.10;;;5.30;;
77152;SDS011;66124;51.146;17.072;2023-06-24T02:05:55;7.10;;;5.50;;
77152;SDS011;66124;51.146;17.072;2023-06-24T02:08:26;6.80;;;5.00;;
77152;SDS011;66124;51.146;17.072;2023-06-24T02:11:01;7.20;;;4.80;;
77152;SDS011;66124;51.146;17.072;2023-06-24T02:13:32;6.70;;;4.30;;
77152;SDS011;66124;51.146;17.072;2023-06-24T02:16:04;7.20;;;4.60;;
77152;SDS011;66124;51.146;17.072;2023-06-24T02:18:36;7.80;;;4.90;;
77152;SDS011;66124;51.146;17.072;2023-06-24T02:21:07;6.20;;;5.00;;
77152;SDS011;66124;51.146;17.072;2023-06-24T02:23:37;7.00;;;5.00;;
77152;SDS011;66124;51.146;17.072;2023-06-24T02:26:07;8.40;;;5.70;;
77152;SDS011;66124;51.146;17.072;2023-06-24T02:28:38;7.80;;;4.80;;
77152;SDS011;66124;51.146;17.072;2023-06-24T02:31:09;6.10;;;4.50;;
77152;SDS011;66124;51.146;17.072;2023-06-24T02:33:40;8.30;;;4.70;;
77152;SDS011;66124;51.146;17.072;2023-06-24T02:36:10;8.90;;;5.40;;
77152;SDS011;66124;51.146;17.072;2023-06-24T02:38:39;8.30;;;4.50;;
77152;SDS011;66124;51.146;17.072;2023-06-24T02:41:09;7.60;;;5.50;;
77152;SDS011;66124;51.146;17.072;2023-06-24T02:43:38;6.00;;;4.20;;
77152;SDS011;66124;51.146;17.072;2023-06-24T02:46:07;6.70;;;4.90;;
77152;SDS011;66124;51.146;17.072;2023-06-24T02:48:38;9.00;;;5.20;;
77152;SDS011;66124;51.146;17.072;2023-06-24T02:51:09;8.60;;;5.50;;
77152;SDS011;66124;51.146;17.072;2023-06-24T02:53:40;7.60;;;5.00;;
77152;SDS011;66124;51.146;17.072;2023-06-24T02:56:11;8.30;;;5.00;;
77152;SDS011;66124;51.146;17.072;2023-06-24T02:58:42;7.30;;;4.80;;
77152;SDS011;66124;51.146;17.072;2023-06-24T03:01:12;6.70;;;4.70;;
77152;SDS011;66124;51.146;17.072;2023-06-24T03:03:42;6.60;;;4.60;;
77152;SDS011;66124;51.146;17.072;2023-06-24T03:08:40;8.40;;;4.50;;
77152;SDS011;66124;51.146;17.072;2023-06-24T03:11:11;5.60;;;3.90;;
77152;SDS011;66124;51.146;17.072;2023-06-24T03:21:14;7.90;;;4.90;;
77152;SDS011;66124;51.146;17.072;2023-06-24T03:23:44;7.80;;;5.10;;
77152;SDS011;66124;51.146;17.072;2023-06-24T03:26:13;6.60;;;4.50;;
77152;SDS011;66124;51.146;17.072;2023-06-24T03:28:42;6.20;;;4.40;;
77152;SDS011;66124;51.146;17.072;2023-06-24T03:31:12;6.70;;;4.00;;
77152;SDS011;66124;51.146;17.072;2023-06-24T03:33:43;9.60;;;5.20;;
77152;SDS011;66124;51.146;17.072;2023-06-24T03:36:12;6.00;;;4.40;;
77152;SDS011;66124;51.146;17.072;2023-06-24T03:38:42;7.50;;;5.00;;
77152;SDS011;66124;51.146;17.072;2023-06-24T03:41:11;6.60;;;4.10;;
77152;SDS011;66124;51.146;17.072;2023-06-24T03:43:40;8.50;;;5.10;;
77152;SDS011;66124;51.146;17.072;2023-06-24T03:46:10;6.80;;;4.40;;
77152;SDS011;66124;51.146;17.072;2023-06-24T03:48:39;6.70;;;3.90;;
77152;SDS011;66124;51.146;17.072;2023-06-24T03:51:09;5.70;;;4.20;;
77152;SDS011;66124;51.146;17.072;2023-06-24T03:53:38;6.30;;;4.00;;
77152;SDS011;66124;51.146;17.072;2023-06-24T03:56:08;6.30;;;3.90;;
77152;SDS011;66124;51.146;17.072;2023-06-24T03:58:37;7.30;;;4.50;;
77152;SDS011;66124;51.146;17.072;2023-06-24T04:01:06;7.50;;;4.80;;
77152;SDS011;66124;51.146;17.072;2023-06-24T04:03:36;5.70;;;4.10;;
77152;SDS011;66124;51.146;17.072;2023-06-24T04:06:06;9.10;;;5.50;;
77152;SDS011;66124;51.146;17.072;2023-06-24T04:08:35;6.80;;;4.50;;
77152;SDS011;66124;51.146;17.072;2023-06-24T04:11:05;7.00;;;4.40;;
77152;SDS011;66124;51.146;17.072;2023-06-24T04:13:34;5.90;;;4.30;;
77152;SDS011;66124;51.146;17.072;2023-06-24T04:16:04;6.40;;;4.20;;
77152;SDS011;66124;51.146;17.072;2023-06-24T04:18:33;6.30;;;4.10;;
77152;SDS011;66124;51.146;17.072;2023-06-24T04:21:03;6.40;;;4.10;;
77152;SDS011;66124;51.146;17.072;2023-06-24T04:23:32;6.50;;;3.50;;
77152;SDS011;66124;51.146;17.072;2023-06-24T04:26:01;6.30;;;3.40;;
77152;SDS011;66124;51.146;17.072;2023-06-24T04:28:31;5.20;;;3.80;;
77152;SDS011;66124;51.146;17.072;2023-06-24T04:31:00;6.10;;;3.90;;
77152;SDS011;66124;51.146;17.072;2023-06-24T04:39:05;5.90;;;3.40;;
77152;SDS011;66124;51.146;17.072;2023-06-24T04:41:34;5.50;;;3.00;;
77152;SDS011;66124;51.146;17.072;2023-06-24T04:44:04;4.60;;;3.00;;
77152;SDS011;66124;51.146;17.072;2023-06-24T04:46:33;6.70;;;3.40;;
77152;SDS011;66124;51.146;17.072;2023-06-24T04:49:02;4.30;;;2.70;;
77152;SDS011;66124;51.146;17.072;2023-06-24T04:51:33;4.40;;;2.90;;
77152;SDS011;66124;51.146;17.072;2023-06-24T04:54:03;4.50;;;2.90;;
77152;SDS011;66124;51.146;17.072;2023-06-24T04:56:32;4.90;;;3.30;;
77152;SDS011;66124;51.146;17.072;2023-06-24T04:59:02;3.50;;;2.30;;
77152;SDS011;66124;51.146;17.072;2023-06-24T05:01:31;4.50;;;3.40;;
77152;SDS011;66124;51.146;17.072;2023-06-24T05:04:00;4.70;;;3.00;;
77152;SDS011;66124;51.146;17.072;2023-06-24T05:06:30;5.10;;;3.20;;
77152;SDS011;66124;51.146;17.072;2023-06-24T05:08:59;4.50;;;3.10;;
77152;SDS011;66124;51.146;17.072;2023-06-24T05:11:28;6.90;;;3.60;;
77152;SDS011;66124;51.146;17.072;2023-06-24T05:13:58;3.90;;;3.00;;
77152;SDS011;66124;51.146;17.072;2023-06-24T05:16:27;5.30;;;3.20;;
77152;SDS011;66124;51.146;17.072;2023-06-24T05:18:56;5.20;;;3.30;;
77152;SDS011;66124;51.146;17.072;2023-06-24T05:21:26;5.60;;;3.00;;
77152;SDS011;66124;51.146;17.072;2023-06-24T05:23:55;5.10;;;2.90;;
77152;SDS011;66124;51.146;17.072;2023-06-24T05:26:25;4.60;;;3.00;;
77152;SDS011;66124;51.146;17.072;2023-06-24T05:28:54;5.20;;;3.00;;
77152;SDS011;66124;51.146;17.072;2023-06-24T05:31:23;4.00;;;2.50;;
77152;SDS011;66124;51.146;17.072;2023-06-24T05:33:53;3.90;;;2.70;;
77152;SDS011;66124;51.146;17.072;2023-06-24T05:36:22;3.70;;;2.50;;
77152;SDS011;66124;51.146;17.072;2023-06-24T05:38:52;3.60;;;2.20;;
77152;SDS011;66124;51.146;17.072;2023-06-24T05:41:21;3.50;;;2.70;;
77152;SDS011;66124;51.146;17.072;2023-06-24T05:43:59;3.60;;;2.80;;
77152;SDS011;66124;51.146;17.072;2023-06-24T05:46:31;2.70;;;2.00;;
77152;SDS011;66124;51.146;17.072;2023-06-24T05:59:19;4.30;;;2.90;;
77152;SDS011;66124;51.146;17.072;2023-06-24T06:01:47;3.60;;;2.90;;
77152;SDS011;66124;51.146;17.072;2023-06-24T06:04:14;6.10;;;3.20;;
77152;SDS011;66124;51.146;17.072;2023-06-24T06:06:41;5.00;;;2.90;;
77152;SDS011;66124;51.146;17.072;2023-06-24T06:09:09;4.00;;;2.80;;
77152;SDS011;66124;51.146;17.072;2023-06-24T06:11:36;5.60;;;3.20;;
77152;SDS011;66124;51.146;17.072;2023-06-24T06:14:03;5.40;;;3.10;;
77152;SDS011;66124;51.146;17.072;2023-06-24T06:16:31;5.70;;;3.30;;
77152;SDS011;66124;51.146;17.072;2023-06-24T06:28:49;5.50;;;3.20;;
77152;SDS011;66124;51.146;17.072;2023-06-24T06:31:18;4.80;;;3.40;;
77152;SDS011;66124;51.146;17.072;2023-06-24T06:33:47;6.50;;;3.70;;
77152;SDS011;66124;51.146;17.072;2023-06-24T06:36:17;5.80;;;4.30;;
77152;SDS011;66124;51.146;17.072;2023-06-24T06:38:46;6.20;;;4.10;;
77152;SDS011;66124;51.146;17.072;2023-06-24T06:41:17;6.80;;;4.40;;
77152;SDS011;66124;51.146;17.072;2023-06-24T06:43:47;6.10;;;3.90;;
77152;SDS011;66124;51.146;17.072;2023-06-24T06:46:16;8.40;;;4.60;;
77152;SDS011;66124;51.146;17.072;2023-06-24T06:48:45;6.30;;;4.60;;
77152;SDS011;66124;51.146;17.072;2023-06-24T06:51:15;7.70;;;5.30;;
77152;SDS011;66124;51.146;17.072;2023-06-24T06:53:45;7.30;;;4.70;;
77152;SDS011;66124;51.146;17.072;2023-06-24T06:56:18;6.50;;;4.60;;
77152;SDS011;66124;51.146;17.072;2023-06-24T06:58:50;5.80;;;4.10;;
77152;SDS011;66124;51.146;17.072;2023-06-24T07:01:19;5.70;;;4.90;;
77152;SDS011;66124;51.146;17.072;2023-06-24T07:03:49;7.10;;;4.80;;
77152;SDS011;66124;51.146;17.072;2023-06-24T07:06:19;6.20;;;4.30;;
77152;SDS011;66124;51.146;17.072;2023-06-24T07:08:48;6.90;;;4.70;;
77152;SDS011;66124;51.146;17.072;2023-06-24T07:11:18;6.30;;;4.30;;
77152;SDS011;66124;51.146;17.072;2023-06-24T07:13:47;7.10;;;4.70;;
77152;SDS011;66124;51.146;17.072;2023-06-24T07:16:17;6.60;;;4.40;;
77152;SDS011;66124;51.146;17.072;2023-06-24T07:18:46;6.80;;;4.80;;
77152;SDS011;66124;51.146;17.072;2023-06-24T07:21:15;6.20;;;4.20;;
77152;SDS011;66124;51.146;17.072;2023-06-24T07:23:45;8.60;;;4.90;;
77152;SDS011;66124;51.146;17.072;2023-06-24T07:26:14;7.90;;;5.00;;
77152;SDS011;66124;51.146;17.072;2023-06-24T07:28:44;6.00;;;3.80;;
77152;SDS011;66124;51.146;17.072;2023-06-24T07:31:13;6.80;;;4.70;;
77152;SDS011;66124;51.146;17.072;2023-06-24T07:33:42;6.40;;;4.80;;
77152;SDS011;66124;51.146;17.072;2023-06-24T07:36:12;5.90;;;4.60;;
77152;SDS011;66124;51.146;17.072;2023-06-24T07:54:29;7.40;;;5.00;;
77152;SDS011;66124;51.146;17.072;2023-06-24T07:56:56;7.80;;;5.70;;
77152;SDS011;66124;51.146;17.072;2023-06-24T07:59:24;8.60;;;5.70;;
77152;SDS011;66124;51.146;17.072;2023-06-24T08:01:52;7.00;;;5.30;;
77152;SDS011;66124;51.146;17.072;2023-06-24T08:04:19;8.30;;;5.60;;
77152;SDS011;66124;51.146;17.072;2023-06-24T08:06:47;8.10;;;5.40;;
77152;SDS011;66124;51.146;17.072;2023-06-24T08:09:15;7.50;;;5.10;;
77152;SDS011;66124;51.146;17.072;2023-06-24T08:14:09;7.90;;;6.00;;
77152;SDS011;66124;51.146;17.072;2023-06-24T08:24:14;8.80;;;6.30;;
77152;SDS011;66124;51.146;17.072;2023-06-24T08:26:43;8.70;;;7.00;;
77152;SDS011;66124;51.146;17.072;2023-06-24T08:29:12;9.30;;;6.30;;
77152;SDS011;66124;51.146;17.072;2023-06-24T08:31:42;9.40;;;6.80;;
77152;SDS011;66124;51.146;17.072;2023-06-24T08:34:11;9.50;;;6.60;;
77152;SDS011;66124;51.146;17.072;2023-06-24T08:36:42;8.30;;;6.10;;
77152;SDS011;66124;51.146;17.072;2023-06-24T08:39:12;8.60;;;6.40;;
77152;SDS011;66124;51.146;17.072;2023-06-24T08:41:41;8.90;;;6.90;;
77152;SDS011;66124;51.146;17.072;2023-06-24T08:44:11;7.50;;;6.40;;
77152;SDS011;66124;51.146;17.072;2023-06-24T08:46:40;7.50;;;5.80;;
77152;SDS011;66124;51.146;17.072;2023-06-24T08:49:17;7.60;;;5.90;;
77152;SDS011;66124;51.146;17.072;2023-06-24T08:51:56;10.90;;;7.30;;
77152;SDS011;66124;51.146;17.072;2023-06-24T08:54:32;8.90;;;7.20;;
77152;SDS011;66124;51.146;17.072;2023-06-24T08:57:04;9.20;;;6.80;;
77152;SDS011;66124;51.146;17.072;2023-06-24T08:59:34;8.30;;;6.20;;
77152;SDS011;66124;51.146;17.072;2023-06-24T09:02:04;8.80;;;6.60;;
77152;SDS011;66124;51.146;17.072;2023-06-24T09:04:35;8.90;;;6.40;;
77152;SDS011;66124;51.146;17.072;2023-06-24T09:07:05;8.80;;;6.90;;
77152;SDS011;66124;51.146;17.072;2023-06-24T09:09:35;8.30;;;6.60;;
77152;SDS011;66124;51.146;17.072;2023-06-24T09:12:12;10.10;;;7.50;;
77152;SDS011;66124;51.146;17.072;2023-06-24T09:14:42;9.20;;;7.40;;
77152;SDS011;66124;51.146;17.072;2023-06-24T09:17:17;9.80;;;7.70;;
77152;SDS011;66124;51.146;17.072;2023-06-24T09:19:47;10.10;;;7.60;;
77152;SDS011;66124;51.146;17.072;2023-06-24T09:22:17;8.50;;;7.30;;
77152;SDS011;66124;51.146;17.072;2023-06-24T09:24:47;9.60;;;7.40;;
77152;SDS011;66124;51.146;17.072;2023-06-24T09:27:17;11.50;;;7.50;;
77152;SDS011;66124;51.146;17.072;2023-06-24T09:29:47;9.60;;;7.90;;
77152;SDS011;66124;51.146;17.072;2023-06-24T09:32:16;9.70;;;7.50;;
77152;SDS011;66124;51.146;17.072;2023-06-24T09:45:12;10.30;;;7.70;;
77152;SDS011;66124;51.146;17.072;2023-06-24T09:47:42;13.30;;;8.20;;
77152;SDS011;66124;51.146;17.072;2023-06-24T09:50:11;10.10;;;8.50;;
77152;SDS011;66124;51.146;17.072;2023-06-24T09:52:40;10.80;;;8.70;;
77152;SDS011;66124;51.146;17.072;2023-06-24T09:55:13;11.90;;;8.00;;
77152;SDS011;66124;51.146;17.072;2023-06-24T09:57:44;10.20;;;8.00;;
77152;SDS011;66124;51.146;17.072;2023-06-24T10:00:16;10.30;;;7.20;;
77152;SDS011;66124;51.146;17.072;2023-06-24T10:02:47;9.00;;;7.20;;
77152;SDS011;66124;51.146;17.072;2023-06-24T10:05:17;9.70;;;7.10;;
77152;SDS011;66124;51.146;17.072;2023-06-24T10:07:47;8.80;;;7.50;;
77152;SDS011;66124;51.146;17.072;2023-06-24T10:10:17;7.90;;;6.70;;
77152;SDS011;66124;51.146;17.072;2023-06-24T10:12:46;9.80;;;7.40;;
77152;SDS011;66124;51.146;17.072;2023-06-24T10:15:16;9.50;;;7.90;;
77152;SDS011;66124;51.146;17.072;2023-06-24T10:17:46;8.00;;;6.70;;
77152;SDS011;66124;51.146;17.072;2023-06-24T10:20:15;9.40;;;7.10;;
77152;SDS011;66124;51.146;17.072;2023-06-24T10:22:53;10.30;;;8.50;;
77152;SDS011;66124;51.146;17.072;2023-06-24T10:25:22;10.90;;;8.30;;
77152;SDS011;66124;51.146;17.072;2023-06-24T10:27:54;8.50;;;7.40;;
77152;SDS011;66124;51.146;17.072;2023-06-24T10:30:24;8.30;;;7.10;;
77152;SDS011;66124;51.146;17.072;2023-06-24T10:32:53;7.70;;;6.20;;
77152;SDS011;66124;51.146;17.072;2023-06-24T10:35:23;7.60;;;6.40;;
77152;SDS011;66124;51.146;17.072;2023-06-24T10:37:57;10.10;;;6.80;;
77152;SDS011;66124;51.146;17.072;2023-06-24T10:40:37;8.30;;;6.30;;
77152;SDS011;66124;51.146;17.072;2023-06-24T10:45:58;8.60;;;6.40;;
77152;SDS011;66124;51.146;17.072;2023-06-24T10:48:28;9.30;;;7.40;;
77152;SDS011;66124;51.146;17.072;2023-06-24T10:50:57;7.40;;;6.30;;
77152;SDS011;66124;51.146;17.072;2023-06-24T10:53:26;10.30;;;6.90;;
77152;SDS011;66124;51.146;17.072;2023-06-24T11:04:33;7.40;;;5.50;;
77152;SDS011;66124;51.146;17.072;2023-06-24T11:07:09;7.90;;;6.60;;
77152;SDS011;66124;51.146;17.072;2023-06-24T11:09:40;9.20;;;6.00;;
77152;SDS011;66124;51.146;17.072;2023-06-24T11:12:15;7.30;;;6.00;;
77152;SDS011;66124;51.146;17.072;2023-06-24T11:14:45;6.60;;;5.30;;
77152;SDS011;66124;51.146;17.072;2023-06-24T11:17:14;5.70;;;4.60;;
77152;SDS011;66124;51.146;17.072;2023-06-24T11:19:44;6.90;;;5.20;;
77152;SDS011;66124;51.146;17.072;2023-06-24T11:22:13;6.80;;;5.60;;
77152;SDS011;66124;51.146;17.072;2023-06-24T11:24:43;6.20;;;5.20;;
77152;SDS011;66124;51.146;17.072;2023-06-24T11:27:12;7.70;;;6.10;;
77152;SDS011;66124;51.146;17.072;2023-06-24T11:29:42;7.50;;;5.70;;
77152;SDS011;66124;51.146;17.072;2023-06-24T11:32:12;6.80;;;6.00;;
77152;SDS011;66124;51.146;17.072;2023-06-24T11:34:41;7.10;;;5.40;;
77152;SDS011;66124;51.146;17.072;2023-06-24T11:37:12;8.50;;;6.00;;
77152;SDS011;66124;51.146;17.072;2023-06-24T11:39:43;7.40;;;5.30;;
77152;SDS011;66124;51.146;17.072;2023-06-24T11:42:27;6.50;;;5.30;;
77152;SDS011;66124;51.146;17.072;2023-06-24T11:45:00;6.00;;;5.30;;
77152;SDS011;66124;51.146;17.072;2023-06-24T11:47:32;6.30;;;5.70;;
77152;SDS011;66124;51.146;17.072;2023-06-24T11:50:03;5.20;;;4.60;;
77152;SDS011;66124;51.146;17.072;2023-06-24T11:52:39;6.80;;;5.10;;
77152;SDS011;66124;51.146;17.072;2023-06-24T11:55:12;6.50;;;5.30;;
77152;SDS011;66124;51.146;17.072;2023-06-24T11:57:53;6.10;;;5.00;;
77152;SDS011;66124;51.146;17.072;2023-06-24T12:00:26;6.60;;;5.40;;
77152;SDS011;66124;51.146;17.072;2023-06-24T12:02:57;6.10;;;5.00;;
77152;SDS011;66124;51.146;17.072;2023-06-24T12:05:28;6.40;;;5.10;;
77152;SDS011;66124;51.146;17.072;2023-06-24T12:07:59;6.10;;;5.50;;
77152;SDS011;66124;51.146;17.072;2023-06-24T12:10:30;5.70;;;4.80;;
77152;SDS011;66124;51.146;17.072;2023-06-24T12:13:02;5.80;;;5.00;;
77152;SDS011;66124;51.146;17.072;2023-06-24T12:18:33;6.10;;;5.10;;
77152;SDS011;66124;51.146;17.072;2023-06-24T12:21:02;6.90;;;4.90;;
77152;SDS011;66124;51.146;17.072;2023-06-24T12:23:32;6.60;;;5.00;;
77152;SDS011;66124;51.146;17.072;2023-06-24T12:26:01;7.50;;;5.20;;
77152;SDS011;66124;51.146;17.072;2023-06-24T12:28:31;7.20;;;4.80;;
77152;SDS011;66124;51.146;17.072;2023-06-24T12:31:02;6.10;;;5.20;;
77152;SDS011;66124;51.146;17.072;2023-06-24T12:33:31;5.40;;;4.80;;
77152;SDS011;66124;51.146;17.072;2023-06-24T12:36:00;5.00;;;4.60;;
77152;SDS011;66124;51.146;17.072;2023-06-24T12:38:30;6.70;;;4.90;;
77152;SDS011;66124;51.146;17.072;2023-06-24T12:41:00;6.30;;;4.80;;
77152;SDS011;66124;51.146;17.072;2023-06-24T12:43:29;5.60;;;4.80;;
77152;SDS011;66124;51.146;17.072;2023-06-24T12:45:58;4.60;;;4.20;;
77152;SDS011;66124;51.146;17.072;2023-06-24T12:48:28;4.80;;;4.30;;
77152;SDS011;66124;51.146;17.072;2023-06-24T12:50:57;4.80;;;4.30;;
77152;SDS011;66124;51.146;17.072;2023-06-24T12:53:27;6.10;;;4.90;;
77152;SDS011;66124;51.146;17.072;2023-06-24T12:55:56;5.30;;;4.80;;
77152;SDS011;66124;51.146;17.072;2023-06-24T12:58:25;5.60;;;4.80;;
77152;SDS011;66124;51.146;17.072;2023-06-24T13:00:55;6.00;;;4.80;;
77152;SDS011;66124;51.146;17.072;2023-06-24T13:03:24;5.00;;;4.50;;
77152;SDS011;66124;51.146;17.072;2023-06-24T13:05:54;5.50;;;5.10;;
77152;SDS011;66124;51.146;17.072;2023-06-24T13:08:23;5.20;;;4.70;;
77152;SDS011;66124;51.146;17.072;2023-06-24T13:10:53;6.30;;;4.90;;
77152;SDS011;66124;51.146;17.072;2023-06-24T13:13:22;5.30;;;4.70;;
77152;SDS011;66124;51.146;17.072;2023-06-24T13:15:51;5.30;;;4.80;;
77152;SDS011;66124;51.146;17.072;2023-06-24T13:18:21;5.20;;;4.60;;
77152;SDS011;66124;51.146;17.072;2023-06-24T13:20:50;5.70;;;4.90;;
77152;SDS011;66124;51.146;17.072;2023-06-24T13:23:20;5.20;;;4.70;;
77152;SDS011;66124;51.146;17.072;2023-06-24T13:25:49;6.40;;;4.70;;
77152;SDS011;66124;51.146;17.072;2023-06-24T13:28:19;5.30;;;4.80;;
77152;SDS011;66124;51.146;17.072;2023-06-24T13:39:20;4.90;;;4.40;;
77152;SDS011;66124;51.146;17.072;2023-06-24T13:41:49;5.50;;;4.80;;
77152;SDS011;66124;51.146;17.072;2023-06-24T13:44:19;6.50;;;4.30;;
77152;SDS011;66124;51.146;17.072;2023-06-24T13:46:48;4.40;;;4.00;;
77152;SDS011;66124;51.146;17.072;2023-06-24T13:49:17;4.20;;;3.90;;
77152;SDS011;66124;51.146;17.072;2023-06-24T13:51:48;4.30;;;4.00;;
77152;SDS011;66124;51.146;17.072;2023-06-24T13:54:18;4.80;;;4.20;;
77152;SDS011;66124;51.146;17.072;2023-06-24T13:56:47;4.60;;;4.20;;
77152;SDS011;66124;51.146;17.072;2023-06-24T13:59:16;5.00;;;4.40;;
77152;SDS011;66124;51.146;17.072;2023-06-24T14:01:46;4.40;;;4.00;;
77152;SDS011;66124;51.146;17.072;2023-06-24T14:04:15;5.10;;;4.00;;
77152;SDS011;66124;51.146;17.072;2023-06-24T14:06:45;4.70;;;4.00;;
77152;SDS011;66124;51.146;17.072;2023-06-24T14:09:14;4.50;;;4.10;;
77152;SDS011;66124;51.146;17.072;2023-06-24T14:11:43;4.50;;;4.10;;
77152;SDS011;66124;51.146;17.072;2023-06-24T14:14:13;5.00;;;4.30;;
77152;SDS011;66124;51.146;17.072;2023-06-24T14:16:42;4.90;;;4.10;;
77152;SDS011;66124;51.146;17.072;2023-06-24T14:19:11;4.40;;;4.00;;
77152;SDS011;66124;51.146;17.072;2023-06-24T14:21:41;4.50;;;4.10;;
77152;SDS011;66124;51.146;17.072;2023-06-24T14:24:10;4.30;;;3.80;;
77152;SDS011;66124;51.146;17.072;2023-06-24T14:26:40;5.30;;;4.10;;
77152;SDS011;66124;51.146;17.072;2023-06-24T14:29:09;4.70;;;3.90;;
77152;SDS011;66124;51.146;17.072;2023-06-24T14:31:39;6.50;;;4.50;;
77152;SDS011;66124;51.146;17.072;2023-06-24T14:34:08;4.10;;;3.70;;
77152;SDS011;66124;51.146;17.072;2023-06-24T14:36:38;4.70;;;3.60;;
77152;SDS011;66124;51.146;17.072;2023-06-24T14:39:07;4.70;;;3.70;;
77152;SDS011;66124;51.146;17.072;2023-06-24T14:41:36;5.90;;;4.00;;
77152;SDS011;66124;51.146;17.072;2023-06-24T14:44:06;4.50;;;4.10;;
77152;SDS011;66124;51.146;17.072;2023-06-24T14:46:35;4.50;;;3.70;;
77152;SDS011;66124;51.146;17.072;2023-06-24T14:49:04;4.60;;;4.10;;
77152;SDS011;66124;51.146;17.072;2023-06-24T14:59:13;5.40;;;4.00;;
77152;SDS011;66124;51.146;17.072;2023-06-24T15:01:43;5.10;;;4.50;;
77152;SDS011;66124;51.146;17.072;2023-06-24T15:04:12;5.50;;;4.10;;
77152;SDS011;66124;51.146;17.072;2023-06-24T15:06:42;5.50;;;4.20;;
77152;SDS011;66124;51.146;17.072;2023-06-24T15:09:11;4.60;;;4.20;;
77152;SDS011;66124;51.146;17.072;2023-06-24T15:11:42;5.40;;;4.30;;
77152;SDS011;66124;51.146;17.072;2023-06-24T15:14:11;5.70;;;4.90;;
77152;SDS011;66124;51.146;17.072;2023-06-24T15:16:41;4.60;;;4.10;;
77152;SDS011;66124;51.146;17.072;2023-06-24T15:19:10;5.10;;;4.40;;
77152;SDS011;66124;51.146;17.072;2023-06-24T15:21:39;4.70;;;4.30;;
77152;SDS011;66124;51.146;17.072;2023-06-24T15:24:09;4.60;;;4.20;;
77152;SDS011;66124;51.146;17.072;2023-06-24T15:26:38;5.10;;;4.30;;
77152;SDS011;66124;51.146;17.072;2023-06-24T15:29:07;4.60;;;4.20;;
77152;SDS011;66124;51.146;17.072;2023-06-24T15:31:37;4.80;;;4.20;;
77152;SDS011;66124;51.146;17.072;2023-06-24T15:34:06;5.70;;;4.40;;
77152;SDS011;66124;51.146;17.072;2023-06-24T15:39:05;4.60;;;4.20;;
77152;SDS011;66124;51.146;17.072;2023-06-24T15:41:34;4.90;;;4.30;;
77152;SDS011;66124;51.146;17.072;2023-06-24T15:44:05;4.80;;;4.30;;
77152;SDS011;66124;51.146;17.072;2023-06-24T15:46:35;5.00;;;4.10;;
77152;SDS011;66124;51.146;17.072;2023-06-24T15:49:05;4.80;;;3.80;;
77152;SDS011;66124;51.146;17.072;2023-06-24T15:51:34;4.20;;;3.80;;
77152;SDS011;66124;51.146;17.072;2023-06-24T15:54:04;4.30;;;3.90;;
77152;SDS011;66124;51.146;17.072;2023-06-24T15:56:33;5.10;;;3.90;;
77152;SDS011;66124;51.146;17.072;2023-06-24T15:59:03;5.00;;;4.40;;
77152;SDS011;66124;51.146;17.072;2023-06-24T16:01:32;4.90;;;4.50;;
77152;SDS011;66124;51.146;17.072;2023-06-24T16:04:01;5.50;;;4.40;;
77152;SDS011;66124;51.146;17.072;2023-06-24T16:06:31;4.80;;;4.10;;
77152;SDS011;66124;51.146;17.072;2023-06-24T16:09:00;4.70;;;4.10;;
77152;SDS011;66124;51.146;17.072;2023-06-24T16:16:43;4.70;;;4.30;;
77152;SDS011;66124;51.146;17.072;2023-06-24T16:19:13;4.70;;;4.30;;
77152;SDS011;66124;51.146;17.072;2023-06-24T16:21:42;5.70;;;4.50;;
77152;SDS011;66124;51.146;17.072;2023-06-24T16:24:12;5.10;;;4.50;;
77152;SDS011;66124;51.146;17.072;2023-06-24T16:26:41;5.20;;;4.30;;
77152;SDS011;66124;51.146;17.072;2023-06-24T16:29:12;5.20;;;4.70;;
77152;SDS011;66124;51.146;17.072;2023-06-24T16:34:09;4.70;;;4.30;;
77152;SDS011;66124;51.146;17.072;2023-06-24T16:36:38;4.70;;;4.30;;
77152;SDS011;66124;51.146;17.072;2023-06-24T16:39:08;5.00;;;4.40;;
77152;SDS011;66124;51.146;17.072;2023-06-24T16:41:37;6.00;;;4.80;;
77152;SDS011;66124;51.146;17.072;2023-06-24T16:44:06;4.30;;;3.80;;
77152;SDS011;66124;51.146;17.072;2023-06-24T16:46:36;4.60;;;4.20;;
77152;SDS011;66124;51.146;17.072;2023-06-24T16:49:05;7.40;;;4.60;;
77152;SDS011;66124;51.146;17.072;2023-06-24T16:51:34;5.10;;;4.60;;
77152;SDS011;66124;51.146;17.072;2023-06-24T16:54:04;5.30;;;4.80;;
77152;SDS011;66124;51.146;17.072;2023-06-24T16:56:33;4.60;;;4.10;;
77152;SDS011;66124;51.146;17.072;2023-06-24T16:59:03;5.40;;;4.80;;
77152;SDS011;66124;51.146;17.072;2023-06-24T17:01:32;5.10;;;4.50;;
77152;SDS011;66124;51.146;17.072;2023-06-24T17:04:01;5.00;;;4.10;;